sensor_id;sensor_type;location;lat;lon;timestamp;temperature;humidity
108;DHT22;49;48.530;9.200;2023-05-07T00:02:06;18.70;1.00
108;DHT22;49;48.530;9.200;2023-05-07T00:04:34;18.80;1.00
108;DHT22;49;48.530;9.200;2023-05-07T00:07:03;18.90;1.00
108;DHT22;49;48.530;9.200;2023-05-07T00:09:30;18.80;1.00
108;DHT22;49;48.530;9.200;2023-05-07T00:11:56;18.80;1.00
108;DHT22;49;48.530;9.200;2023-05-07T00:14:23;18.80;1.00
108;DHT22;49;48.530;9.200;2023-05-07T00:16:50;18.60;1.00
108;DHT22;49;48.530;9.200;2023-05-07T00:19:17;18.40;1.00
108;DHT22;49;48.530;9.200;2023-05-07T00:21:45;18.60;1.00
108;DHT22;49;48.530;9.200;2023-05-07T00:24:12;18.50;1.00
108;DHT22;49;48.530;9.200;2023-05-07T00:26:39;18.50;1.00
108;DHT22;49;48.530;9.200;2023-05-07T00:29:06;18.50;1.00
108;DHT22;49;48.530;9.200;2023-05-07T00:31:33;18.50;1.00
108;DHT22;49;48.530;9.200;2023-05-07T00:33:59;18.50;1.00
108;DHT22;49;48.530;9.200;2023-05-07T00:36:26;18.60;1.00
108;DHT22;49;48.530;9.200;2023-05-07T00:38:56;18.50;1.00
108;DHT22;49;48.530;9.200;2023-05-07T00:41:23;18.60;1.00
108;DHT22;49;48.530;9.200;2023-05-07T00:43:50;18.60;1.00
108;DHT22;49;48.530;9.200;2023-05-07T00:46:20;18.50;1.00
108;DHT22;49;48.530;9.200;2023-05-07T00:48:48;18.20;1.00
108;DHT22;49;48.530;9.200;2023-05-07T00:51:16;18.30;1.00
108;DHT22;49;48.530;9.200;2023-05-07T00:53:44;18.30;1.00
108;DHT22;49;48.530;9.200;2023-05-07T00:56:12;18.40;1.00
108;DHT22;49;48.530;9.200;2023-05-07T00:58:40;18.50;1.00
108;DHT22;49;48.530;9.200;2023-05-07T01:01:07;18.50;1.00
108;DHT22;49;48.530;9.200;2023-05-07T01:03:34;18.40;1.00
108;DHT22;49;48.530;9.200;2023-05-07T01:06:03;18.20;1.00
108;DHT22;49;48.530;9.200;2023-05-07T01:08:32;18.20;1.00
108;DHT22;49;48.530;9.200;2023-05-07T01:11:00;18.10;1.00
108;DHT22;49;48.530;9.200;2023-05-07T01:13:30;17.90;1.00
108;DHT22;49;48.530;9.200;2023-05-07T01:15:57;18.10;1.00
108;DHT22;49;48.530;9.200;2023-05-07T01:18:24;18.10;1.00
108;DHT22;49;48.530;9.200;2023-05-07T01:20:52;18.10;1.00
108;DHT22;49;48.530;9.200;2023-05-07T01:23:21;17.90;1.00
108;DHT22;49;48.530;9.200;2023-05-07T01:25:51;18.00;1.00
108;DHT22;49;48.530;9.200;2023-05-07T01:28:18;18.10;1.00
108;DHT22;49;48.530;9.200;2023-05-07T01:30:48;18.20;1.00
108;DHT22;49;48.530;9.200;2023-05-07T01:33:20;18.10;1.00
108;DHT22;49;48.530;9.200;2023-05-07T01:35:50;17.90;1.00
108;DHT22;49;48.530;9.200;2023-05-07T01:38:19;17.70;1.00
108;DHT22;49;48.530;9.200;2023-05-07T01:40:47;17.50;1.00
108;DHT22;49;48.530;9.200;2023-05-07T01:43:14;17.40;1.00
108;DHT22;49;48.530;9.200;2023-05-07T01:45:41;17.50;1.00
108;DHT22;49;48.530;9.200;2023-05-07T01:48:10;17.50;1.00
108;DHT22;49;48.530;9.200;2023-05-07T01:50:39;17.60;1.00
108;DHT22;49;48.530;9.200;2023-05-07T01:53:06;17.60;1.00
108;DHT22;49;48.530;9.200;2023-05-07T01:55:34;17.80;1.00
108;DHT22;49;48.530;9.200;2023-05-07T01:58:02;17.90;1.00
108;DHT22;49;48.530;9.200;2023-05-07T02:00:29;17.80;1.00
108;DHT22;49;48.530;9.200;2023-05-07T02:02:56;17.80;1.00
108;DHT22;49;48.530;9.200;2023-05-07T02:05:23;17.60;1.00
108;DHT22;49;48.530;9.200;2023-05-07T02:07:50;17.70;1.00
108;DHT22;49;48.530;9.200;2023-05-07T02:10:16;17.80;1.00
108;DHT22;49;48.530;9.200;2023-05-07T02:12:44;17.70;1.00
108;DHT22;49;48.530;9.200;2023-05-07T02:15:11;17.80;1.00
108;DHT22;49;48.530;9.200;2023-05-07T02:17:57;17.60;1.00
108;DHT22;49;48.530;9.200;2023-05-07T02:20:24;17.60;1.00
108;DHT22;49;48.530;9.200;2023-05-07T02:22:52;17.40;1.00
108;DHT22;49;48.530;9.200;2023-05-07T02:25:19;17.50;1.00
108;DHT22;49;48.530;9.200;2023-05-07T02:27:47;17.50;1.00
108;DHT22;49;48.530;9.200;2023-05-07T02:30:14;17.50;1.00
108;DHT22;49;48.530;9.200;2023-05-07T02:32:41;17.40;1.00
108;DHT22;49;48.530;9.200;2023-05-07T02:35:08;17.20;1.00
108;DHT22;49;48.530;9.200;2023-05-07T02:37:35;17.20;1.00
108;DHT22;49;48.530;9.200;2023-05-07T02:40:03;17.10;1.00
108;DHT22;49;48.530;9.200;2023-05-07T02:42:30;17.10;1.00
108;DHT22;49;48.530;9.200;2023-05-07T02:44:58;17.20;1.00
108;DHT22;49;48.530;9.200;2023-05-07T02:47:25;17.00;1.00
108;DHT22;49;48.530;9.200;2023-05-07T02:49:54;17.00;1.00
108;DHT22;49;48.530;9.200;2023-05-07T02:52:20;17.00;1.00
108;DHT22;49;48.530;9.200;2023-05-07T02:54:47;17.00;1.00
108;DHT22;49;48.530;9.200;2023-05-07T02:57:15;16.90;1.00
108;DHT22;49;48.530;9.200;2023-05-07T02:59:42;16.90;1.00
108;DHT22;49;48.530;9.200;2023-05-07T03:02:10;16.80;1.00
108;DHT22;49;48.530;9.200;2023-05-07T03:04:38;16.90;1.00
108;DHT22;49;48.530;9.200;2023-05-07T03:07:05;16.90;1.00
108;DHT22;49;48.530;9.200;2023-05-07T03:09:32;16.80;1.00
108;DHT22;49;48.530;9.200;2023-05-07T03:11:58;16.70;1.00
108;DHT22;49;48.530;9.200;2023-05-07T03:14:27;17.10;1.00
108;DHT22;49;48.530;9.200;2023-05-07T03:16:54;17.00;1.00
108;DHT22;49;48.530;9.200;2023-05-07T03:19:22;16.80;1.00
108;DHT22;49;48.530;9.200;2023-05-07T03:21:49;16.70;1.00
108;DHT22;49;48.530;9.200;2023-05-07T03:24:15;16.60;1.00
108;DHT22;49;48.530;9.200;2023-05-07T03:26:42;16.60;1.00
108;DHT22;49;48.530;9.200;2023-05-07T03:29:09;16.40;1.00
108;DHT22;49;48.530;9.200;2023-05-07T03:31:36;16.30;1.00
108;DHT22;49;48.530;9.200;2023-05-07T03:34:04;16.40;1.00
108;DHT22;49;48.530;9.200;2023-05-07T03:36:32;16.40;1.00
108;DHT22;49;48.530;9.200;2023-05-07T03:38:59;16.70;1.00
108;DHT22;49;48.530;9.200;2023-05-07T03:41:26;16.90;1.00
108;DHT22;49;48.530;9.200;2023-05-07T03:43:55;17.00;1.00
108;DHT22;49;48.530;9.200;2023-05-07T03:46:21;16.80;1.00
108;DHT22;49;48.530;9.200;2023-05-07T03:48:51;16.80;1.00
108;DHT22;49;48.530;9.200;2023-05-07T03:51:18;16.90;1.00
108;DHT22;49;48.530;9.200;2023-05-07T03:53:46;16.80;1.00
108;DHT22;49;48.530;9.200;2023-05-07T03:56:13;16.70;1.00
108;DHT22;49;48.530;9.200;2023-05-07T03:58:40;16.70;1.00
108;DHT22;49;48.530;9.200;2023-05-07T04:01:07;16.70;1.00
108;DHT22;49;48.530;9.200;2023-05-07T04:03:34;16.70;1.00
108;DHT22;49;48.530;9.200;2023-05-07T04:06:01;16.80;1.00
108;DHT22;49;48.530;9.200;2023-05-07T04:08:27;16.60;1.00
108;DHT22;49;48.530;9.200;2023-05-07T04:10:56;16.70;1.00
108;DHT22;49;48.530;9.200;2023-05-07T04:13:23;16.60;1.00
108;DHT22;49;48.530;9.200;2023-05-07T04:15:50;16.50;1.00
108;DHT22;49;48.530;9.200;2023-05-07T04:18:17;16.80;1.00
108;DHT22;49;48.530;9.200;2023-05-07T04:20:44;16.90;1.00
108;DHT22;49;48.530;9.200;2023-05-07T04:23:11;16.70;1.00
108;DHT22;49;48.530;9.200;2023-05-07T04:25:38;16.70;1.00
108;DHT22;49;48.530;9.200;2023-05-07T04:28:06;16.80;1.00
108;DHT22;49;48.530;9.200;2023-05-07T04:30:33;16.60;1.00
108;DHT22;49;48.530;9.200;2023-05-07T04:32:59;16.40;1.00
108;DHT22;49;48.530;9.200;2023-05-07T04:35:26;16.50;1.00
108;DHT22;49;48.530;9.200;2023-05-07T04:37:53;16.40;1.00
108;DHT22;49;48.530;9.200;2023-05-07T04:40:20;16.40;1.00
108;DHT22;49;48.530;9.200;2023-05-07T04:42:47;16.60;1.00
108;DHT22;49;48.530;9.200;2023-05-07T04:45:15;16.60;1.00
108;DHT22;49;48.530;9.200;2023-05-07T04:47:42;16.90;1.00
108;DHT22;49;48.530;9.200;2023-05-07T04:50:10;17.10;1.00
108;DHT22;49;48.530;9.200;2023-05-07T04:52:37;17.20;1.00
108;DHT22;49;48.530;9.200;2023-05-07T04:55:04;17.20;1.00
108;DHT22;49;48.530;9.200;2023-05-07T04:57:31;17.40;1.00
108;DHT22;49;48.530;9.200;2023-05-07T04:59:58;17.50;1.00
108;DHT22;49;48.530;9.200;2023-05-07T05:02:26;17.50;1.00
108;DHT22;49;48.530;9.200;2023-05-07T05:04:53;17.60;1.00
108;DHT22;49;48.530;9.200;2023-05-07T05:07:20;17.60;1.00
108;DHT22;49;48.530;9.200;2023-05-07T05:09:46;17.70;1.00
108;DHT22;49;48.530;9.200;2023-05-07T05:12:13;17.80;1.00
108;DHT22;49;48.530;9.200;2023-05-07T05:14:41;17.50;1.00
108;DHT22;49;48.530;9.200;2023-05-07T05:17:08;17.80;1.00
108;DHT22;49;48.530;9.200;2023-05-07T05:19:36;18.10;1.00
108;DHT22;49;48.530;9.200;2023-05-07T05:22:03;18.30;1.00
108;DHT22;49;48.530;9.200;2023-05-07T05:24:30;18.20;1.00
108;DHT22;49;48.530;9.200;2023-05-07T05:26:57;18.20;1.00
108;DHT22;49;48.530;9.200;2023-05-07T05:29:25;18.30;1.00
108;DHT22;49;48.530;9.200;2023-05-07T05:31:52;18.80;1.00
108;DHT22;49;48.530;9.200;2023-05-07T05:34:19;19.80;1.00
108;DHT22;49;48.530;9.200;2023-05-07T05:36:48;21.10;1.00
108;DHT22;49;48.530;9.200;2023-05-07T05:39:15;23.10;1.00
108;DHT22;49;48.530;9.200;2023-05-07T05:41:42;23.90;1.00
108;DHT22;49;48.530;9.200;2023-05-07T05:44:09;25.10;1.00
108;DHT22;49;48.530;9.200;2023-05-07T05:46:35;25.90;1.00
108;DHT22;49;48.530;9.200;2023-05-07T05:49:02;26.00;1.00
108;DHT22;49;48.530;9.200;2023-05-07T05:51:29;26.40;1.00
108;DHT22;49;48.530;9.200;2023-05-07T05:53:57;26.60;1.00
108;DHT22;49;48.530;9.200;2023-05-07T05:56:24;27.90;1.00
108;DHT22;49;48.530;9.200;2023-05-07T05:58:51;28.00;1.00
108;DHT22;49;48.530;9.200;2023-05-07T06:01:18;28.00;1.00
108;DHT22;49;48.530;9.200;2023-05-07T06:03:45;27.50;1.00
108;DHT22;49;48.530;9.200;2023-05-07T06:06:12;27.30;1.00
108;DHT22;49;48.530;9.200;2023-05-07T06:08:40;27.70;1.00
108;DHT22;49;48.530;9.200;2023-05-07T06:11:08;27.30;1.00
108;DHT22;49;48.530;9.200;2023-05-07T06:13:35;27.60;1.00
108;DHT22;49;48.530;9.200;2023-05-07T06:16:02;27.90;1.00
108;DHT22;49;48.530;9.200;2023-05-07T06:18:29;27.30;1.00
108;DHT22;49;48.530;9.200;2023-05-07T06:20:56;27.20;1.00
108;DHT22;49;48.530;9.200;2023-05-07T06:23:22;27.30;1.00
108;DHT22;49;48.530;9.200;2023-05-07T06:25:49;27.00;1.00
108;DHT22;49;48.530;9.200;2023-05-07T06:28:18;27.50;1.00
108;DHT22;49;48.530;9.200;2023-05-07T06:30:45;27.80;1.00
108;DHT22;49;48.530;9.200;2023-05-07T06:33:12;28.10;1.00
108;DHT22;49;48.530;9.200;2023-05-07T06:35:38;28.30;1.00
108;DHT22;49;48.530;9.200;2023-05-07T06:38:05;28.60;1.00
108;DHT22;49;48.530;9.200;2023-05-07T06:40:32;28.50;1.00
108;DHT22;49;48.530;9.200;2023-05-07T06:42:59;28.50;1.00
108;DHT22;49;48.530;9.200;2023-05-07T06:45:27;29.20;1.00
108;DHT22;49;48.530;9.200;2023-05-07T06:47:54;28.70;1.00
108;DHT22;49;48.530;9.200;2023-05-07T06:50:21;28.80;1.00
108;DHT22;49;48.530;9.200;2023-05-07T06:52:47;29.10;1.00
108;DHT22;49;48.530;9.200;2023-05-07T06:55:14;28.80;1.00
108;DHT22;49;48.530;9.200;2023-05-07T06:57:41;29.00;1.00
108;DHT22;49;48.530;9.200;2023-05-07T07:00:09;28.80;1.00
108;DHT22;49;48.530;9.200;2023-05-07T07:02:37;29.00;1.00
108;DHT22;49;48.530;9.200;2023-05-07T07:05:05;28.50;1.00
108;DHT22;49;48.530;9.200;2023-05-07T07:07:32;28.10;1.00
108;DHT22;49;48.530;9.200;2023-05-07T07:09:59;27.70;1.00
108;DHT22;49;48.530;9.200;2023-05-07T07:12:26;27.50;1.00
108;DHT22;49;48.530;9.200;2023-05-07T07:14:54;26.90;1.00
108;DHT22;49;48.530;9.200;2023-05-07T07:17:21;27.60;1.00
108;DHT22;49;48.530;9.200;2023-05-07T07:19:49;27.80;1.00
108;DHT22;49;48.530;9.200;2023-05-07T07:22:16;28.00;1.00
108;DHT22;49;48.530;9.200;2023-05-07T07:24:43;27.90;1.00
108;DHT22;49;48.530;9.200;2023-05-07T07:27:10;29.30;1.00
108;DHT22;49;48.530;9.200;2023-05-07T07:29:37;30.30;1.00
108;DHT22;49;48.530;9.200;2023-05-07T07:32:04;30.50;1.00
108;DHT22;49;48.530;9.200;2023-05-07T07:34:31;30.70;1.00
108;DHT22;49;48.530;9.200;2023-05-07T07:36:59;30.40;1.00
108;DHT22;49;48.530;9.200;2023-05-07T07:39:30;31.80;1.00
108;DHT22;49;48.530;9.200;2023-05-07T07:41:57;31.30;1.00
108;DHT22;49;48.530;9.200;2023-05-07T07:44:24;31.90;1.00
108;DHT22;49;48.530;9.200;2023-05-07T07:46:51;31.60;1.00
108;DHT22;49;48.530;9.200;2023-05-07T07:49:18;30.80;1.00
108;DHT22;49;48.530;9.200;2023-05-07T07:51:45;31.10;1.00
108;DHT22;49;48.530;9.200;2023-05-07T07:54:13;30.50;1.00
108;DHT22;49;48.530;9.200;2023-05-07T07:56:40;30.50;1.00
108;DHT22;49;48.530;9.200;2023-05-07T07:59:07;29.90;1.00
108;DHT22;49;48.530;9.200;2023-05-07T08:01:34;29.20;1.00
108;DHT22;49;48.530;9.200;2023-05-07T08:04:01;28.00;1.00
108;DHT22;49;48.530;9.200;2023-05-07T08:06:30;27.40;1.00
108;DHT22;49;48.530;9.200;2023-05-07T08:08:57;27.10;1.00
108;DHT22;49;48.530;9.200;2023-05-07T08:11:26;27.10;1.00
108;DHT22;49;48.530;9.200;2023-05-07T08:13:53;27.30;1.00
108;DHT22;49;48.530;9.200;2023-05-07T08:16:20;27.70;1.00
108;DHT22;49;48.530;9.200;2023-05-07T08:18:47;27.80;1.00
108;DHT22;49;48.530;9.200;2023-05-07T08:21:14;27.60;1.00
108;DHT22;49;48.530;9.200;2023-05-07T08:23:41;26.70;1.00
108;DHT22;49;48.530;9.200;2023-05-07T08:26:08;26.80;1.00
108;DHT22;49;48.530;9.200;2023-05-07T08:28:36;27.00;1.00
108;DHT22;49;48.530;9.200;2023-05-07T08:31:03;26.70;1.00
108;DHT22;49;48.530;9.200;2023-05-07T08:33:29;26.70;1.00
108;DHT22;49;48.530;9.200;2023-05-07T08:35:56;27.80;1.00
108;DHT22;49;48.530;9.200;2023-05-07T08:38:23;27.70;1.00
108;DHT22;49;48.530;9.200;2023-05-07T08:40:50;27.90;1.00
108;DHT22;49;48.530;9.200;2023-05-07T08:43:18;28.60;1.00
108;DHT22;49;48.530;9.200;2023-05-07T08:45:49;28.80;1.00
108;DHT22;49;48.530;9.200;2023-05-07T08:48:22;28.60;1.00
108;DHT22;49;48.530;9.200;2023-05-07T08:50:52;28.80;1.00
108;DHT22;49;48.530;9.200;2023-05-07T08:53:22;28.80;1.00
108;DHT22;49;48.530;9.200;2023-05-07T08:55:49;29.40;1.00
108;DHT22;49;48.530;9.200;2023-05-07T08:58:17;29.40;1.00
108;DHT22;49;48.530;9.200;2023-05-07T09:00:44;28.80;1.00
108;DHT22;49;48.530;9.200;2023-05-07T09:03:12;28.50;1.00
108;DHT22;49;48.530;9.200;2023-05-07T09:05:39;28.90;1.00
108;DHT22;49;48.530;9.200;2023-05-07T09:08:07;29.30;1.00
108;DHT22;49;48.530;9.200;2023-05-07T09:10:34;28.90;1.00
108;DHT22;49;48.530;9.200;2023-05-07T09:13:02;28.60;1.00
108;DHT22;49;48.530;9.200;2023-05-07T09:15:29;28.40;1.00
108;DHT22;49;48.530;9.200;2023-05-07T09:17:59;28.30;1.00
108;DHT22;49;48.530;9.200;2023-05-07T09:20:30;28.10;1.00
108;DHT22;49;48.530;9.200;2023-05-07T09:22:57;28.20;1.00
108;DHT22;49;48.530;9.200;2023-05-07T09:25:28;28.10;1.00
108;DHT22;49;48.530;9.200;2023-05-07T09:27:55;27.80;1.00
108;DHT22;49;48.530;9.200;2023-05-07T09:30:22;27.80;1.00
108;DHT22;49;48.530;9.200;2023-05-07T09:32:49;28.30;1.00
108;DHT22;49;48.530;9.200;2023-05-07T09:35:16;28.70;1.00
108;DHT22;49;48.530;9.200;2023-05-07T09:37:45;28.80;1.00
108;DHT22;49;48.530;9.200;2023-05-07T09:40:21;28.50;1.00
108;DHT22;49;48.530;9.200;2023-05-07T09:42:48;28.30;1.00
108;DHT22;49;48.530;9.200;2023-05-07T09:45:16;27.50;1.00
108;DHT22;49;48.530;9.200;2023-05-07T09:47:43;27.00;1.00
108;DHT22;49;48.530;9.200;2023-05-07T09:50:12;27.10;1.00
108;DHT22;49;48.530;9.200;2023-05-07T09:52:42;26.90;1.00
108;DHT22;49;48.530;9.200;2023-05-07T09:55:12;26.70;1.00
108;DHT22;49;48.530;9.200;2023-05-07T09:57:40;27.20;1.00
108;DHT22;49;48.530;9.200;2023-05-07T10:00:09;27.00;1.00
108;DHT22;49;48.530;9.200;2023-05-07T10:02:39;27.10;1.00
108;DHT22;49;48.530;9.200;2023-05-07T10:05:12;27.20;1.00
108;DHT22;49;48.530;9.200;2023-05-07T10:07:40;27.30;1.00
108;DHT22;49;48.530;9.200;2023-05-07T10:10:08;26.90;1.00
108;DHT22;49;48.530;9.200;2023-05-07T10:12:36;26.90;1.00
108;DHT22;49;48.530;9.200;2023-05-07T10:15:07;27.20;1.00
108;DHT22;49;48.530;9.200;2023-05-07T10:17:35;27.90;1.00
108;DHT22;49;48.530;9.200;2023-05-07T10:20:03;28.40;1.00
108;DHT22;49;48.530;9.200;2023-05-07T10:22:34;28.30;1.00
108;DHT22;49;48.530;9.200;2023-05-07T10:25:08;28.30;1.00
108;DHT22;49;48.530;9.200;2023-05-07T10:27:39;28.20;1.00
108;DHT22;49;48.530;9.200;2023-05-07T10:30:16;28.00;1.00
108;DHT22;49;48.530;9.200;2023-05-07T10:32:49;28.00;1.00
108;DHT22;49;48.530;9.200;2023-05-07T10:35:21;28.20;1.00
108;DHT22;49;48.530;9.200;2023-05-07T10:37:49;28.60;1.00
108;DHT22;49;48.530;9.200;2023-05-07T10:40:17;28.40;1.00
108;DHT22;49;48.530;9.200;2023-05-07T10:42:58;27.50;1.00
108;DHT22;49;48.530;9.200;2023-05-07T10:45:26;27.10;1.00
108;DHT22;49;48.530;9.200;2023-05-07T10:48:10;27.50;1.00
108;DHT22;49;48.530;9.200;2023-05-07T10:50:38;27.90;1.00
108;DHT22;49;48.530;9.200;2023-05-07T10:53:32;27.70;1.00
108;DHT22;49;48.530;9.200;2023-05-07T10:56:24;27.50;1.00
108;DHT22;49;48.530;9.200;2023-05-07T10:58:54;27.70;1.00
108;DHT22;49;48.530;9.200;2023-05-07T11:01:49;27.70;1.00
108;DHT22;49;48.530;9.200;2023-05-07T11:04:17;28.10;1.00
108;DHT22;49;48.530;9.200;2023-05-07T11:10:04;27.70;1.00
108;DHT22;49;48.530;9.200;2023-05-07T11:12:51;28.00;1.00
108;DHT22;49;48.530;9.200;2023-05-07T11:15:36;27.90;1.00
108;DHT22;49;48.530;9.200;2023-05-07T11:18:03;27.80;1.00
108;DHT22;49;48.530;9.200;2023-05-07T11:20:50;27.70;1.00
108;DHT22;49;48.530;9.200;2023-05-07T11:23:55;27.80;1.00
108;DHT22;49;48.530;9.200;2023-05-07T11:26:23;28.00;1.00
108;DHT22;49;48.530;9.200;2023-05-07T11:28:51;27.90;1.00
108;DHT22;49;48.530;9.200;2023-05-07T11:31:23;27.70;1.00
108;DHT22;49;48.530;9.200;2023-05-07T11:33:52;28.00;1.00
108;DHT22;49;48.530;9.200;2023-05-07T11:36:19;28.40;1.00
108;DHT22;49;48.530;9.200;2023-05-07T11:38:46;28.20;1.00
108;DHT22;49;48.530;9.200;2023-05-07T11:41:13;28.20;1.00
108;DHT22;49;48.530;9.200;2023-05-07T11:43:57;28.50;1.00
108;DHT22;49;48.530;9.200;2023-05-07T11:46:27;28.60;1.00
108;DHT22;49;48.530;9.200;2023-05-07T11:48:54;28.20;1.00
108;DHT22;49;48.530;9.200;2023-05-07T11:51:23;27.90;1.00
108;DHT22;49;48.530;9.200;2023-05-07T11:53:51;27.30;1.00
108;DHT22;49;48.530;9.200;2023-05-07T11:56:18;27.20;1.00
108;DHT22;49;48.530;9.200;2023-05-07T11:58:48;26.90;1.00
108;DHT22;49;48.530;9.200;2023-05-07T12:01:17;27.00;1.00
108;DHT22;49;48.530;9.200;2023-05-07T12:03:46;27.00;1.00
108;DHT22;49;48.530;9.200;2023-05-07T12:06:14;27.00;1.00
108;DHT22;49;48.530;9.200;2023-05-07T12:08:42;26.90;1.00
108;DHT22;49;48.530;9.200;2023-05-07T12:11:13;26.80;1.00
108;DHT22;49;48.530;9.200;2023-05-07T12:13:42;26.30;1.00
108;DHT22;49;48.530;9.200;2023-05-07T12:16:11;25.80;1.00
108;DHT22;49;48.530;9.200;2023-05-07T12:18:38;25.80;1.00
108;DHT22;49;48.530;9.200;2023-05-07T12:21:07;25.80;1.00
108;DHT22;49;48.530;9.200;2023-05-07T12:23:36;25.70;1.00
108;DHT22;49;48.530;9.200;2023-05-07T12:26:03;25.60;1.00
108;DHT22;49;48.530;9.200;2023-05-07T12:28:31;24.80;1.00
108;DHT22;49;48.530;9.200;2023-05-07T12:31:04;24.30;1.00
108;DHT22;49;48.530;9.200;2023-05-07T12:33:31;24.30;1.00
108;DHT22;49;48.530;9.200;2023-05-07T12:35:58;24.10;1.00
108;DHT22;49;48.530;9.200;2023-05-07T12:38:35;24.30;1.00
108;DHT22;49;48.530;9.200;2023-05-07T12:41:02;24.40;1.00
108;DHT22;49;48.530;9.200;2023-05-07T12:43:30;24.50;1.00
108;DHT22;49;48.530;9.200;2023-05-07T12:45:59;24.50;1.00
108;DHT22;49;48.530;9.200;2023-05-07T12:48:26;24.30;1.00
108;DHT22;49;48.530;9.200;2023-05-07T12:50:54;24.30;1.00
108;DHT22;49;48.530;9.200;2023-05-07T12:53:24;24.10;1.00
108;DHT22;49;48.530;9.200;2023-05-07T12:55:54;24.20;1.00
108;DHT22;49;48.530;9.200;2023-05-07T12:58:25;24.30;1.00
108;DHT22;49;48.530;9.200;2023-05-07T13:00:53;23.70;1.00
108;DHT22;49;48.530;9.200;2023-05-07T13:03:24;23.20;1.00
108;DHT22;49;48.530;9.200;2023-05-07T13:05:52;22.80;1.00
108;DHT22;49;48.530;9.200;2023-05-07T13:08:28;22.90;1.00
108;DHT22;49;48.530;9.200;2023-05-07T13:10:57;23.10;1.00
108;DHT22;49;48.530;9.200;2023-05-07T13:13:24;23.10;1.00
108;DHT22;49;48.530;9.200;2023-05-07T13:15:51;22.80;1.00
108;DHT22;49;48.530;9.200;2023-05-07T13:18:18;22.70;1.00
108;DHT22;49;48.530;9.200;2023-05-07T13:20:45;22.90;1.00
108;DHT22;49;48.530;9.200;2023-05-07T13:23:14;22.70;1.00
108;DHT22;49;48.530;9.200;2023-05-07T13:25:41;22.30;1.00
108;DHT22;49;48.530;9.200;2023-05-07T13:28:11;22.20;1.00
108;DHT22;49;48.530;9.200;2023-05-07T13:30:38;22.00;1.00
108;DHT22;49;48.530;9.200;2023-05-07T13:33:06;21.80;1.00
108;DHT22;49;48.530;9.200;2023-05-07T13:35:33;21.70;1.00
108;DHT22;49;48.530;9.200;2023-05-07T13:38:00;21.70;1.00
108;DHT22;49;48.530;9.200;2023-05-07T13:42:57;21.20;1.00
108;DHT22;49;48.530;9.200;2023-05-07T13:45:26;21.20;1.00
108;DHT22;49;48.530;9.200;2023-05-07T13:47:55;21.10;1.00
108;DHT22;49;48.530;9.200;2023-05-07T13:50:22;21.10;1.00
108;DHT22;49;48.530;9.200;2023-05-07T13:52:50;21.00;1.00
108;DHT22;49;48.530;9.200;2023-05-07T13:55:17;21.10;1.00
108;DHT22;49;48.530;9.200;2023-05-07T14:00:18;21.00;1.00
108;DHT22;49;48.530;9.200;2023-05-07T14:02:47;20.90;1.00
108;DHT22;49;48.530;9.200;2023-05-07T14:05:13;20.70;1.00
108;DHT22;49;48.530;9.200;2023-05-07T14:10:14;20.50;1.30
108;DHT22;49;48.530;9.200;2023-05-07T14:12:41;20.70;1.00
108;DHT22;49;48.530;9.200;2023-05-07T14:15:09;20.80;1.30
108;DHT22;49;48.530;9.200;2023-05-07T14:17:36;21.00;1.10
108;DHT22;49;48.530;9.200;2023-05-07T14:20:06;21.20;1.80
108;DHT22;49;48.530;9.200;2023-05-07T14:22:33;21.30;1.00
108;DHT22;49;48.530;9.200;2023-05-07T14:25:00;21.20;1.00
108;DHT22;49;48.530;9.200;2023-05-07T14:27:27;20.90;1.00
108;DHT22;49;48.530;9.200;2023-05-07T14:29:54;21.10;1.00
108;DHT22;49;48.530;9.200;2023-05-07T14:32:22;21.30;1.00
108;DHT22;49;48.530;9.200;2023-05-07T14:34:50;21.10;1.00
108;DHT22;49;48.530;9.200;2023-05-07T14:37:18;21.00;1.00
108;DHT22;49;48.530;9.200;2023-05-07T14:39:46;20.90;1.00
108;DHT22;49;48.530;9.200;2023-05-07T14:42:13;20.50;1.50
108;DHT22;49;48.530;9.200;2023-05-07T14:44:40;20.20;3.50
108;DHT22;49;48.530;9.200;2023-05-07T14:47:10;20.20;2.50
108;DHT22;49;48.530;9.200;2023-05-07T14:49:38;20.30;2.40
108;DHT22;49;48.530;9.200;2023-05-07T14:52:06;20.40;3.00
108;DHT22;49;48.530;9.200;2023-05-07T14:54:37;20.20;4.00
108;DHT22;49;48.530;9.200;2023-05-07T14:57:09;20.20;3.60
108;DHT22;49;48.530;9.200;2023-05-07T14:59:39;20.50;2.40
108;DHT22;49;48.530;9.200;2023-05-07T15:02:07;20.90;1.40
108;DHT22;49;48.530;9.200;2023-05-07T15:04:48;21.20;1.00
108;DHT22;49;48.530;9.200;2023-05-07T15:07:16;21.30;1.00
108;DHT22;49;48.530;9.200;2023-05-07T15:09:45;21.20;1.00
108;DHT22;49;48.530;9.200;2023-05-07T15:12:13;21.10;1.00
108;DHT22;49;48.530;9.200;2023-05-07T15:14:43;21.10;1.00
108;DHT22;49;48.530;9.200;2023-05-07T15:17:13;21.20;1.00
108;DHT22;49;48.530;9.200;2023-05-07T15:19:42;21.20;1.00
108;DHT22;49;48.530;9.200;2023-05-07T15:22:09;21.10;1.00
108;DHT22;49;48.530;9.200;2023-05-07T15:24:37;21.20;1.00
108;DHT22;49;48.530;9.200;2023-05-07T15:27:07;21.50;1.00
108;DHT22;49;48.530;9.200;2023-05-07T15:29:35;21.70;1.00
108;DHT22;49;48.530;9.200;2023-05-07T15:32:02;21.70;1.00
108;DHT22;49;48.530;9.200;2023-05-07T15:34:29;21.60;1.00
108;DHT22;49;48.530;9.200;2023-05-07T15:36:58;21.60;1.00
108;DHT22;49;48.530;9.200;2023-05-07T15:39:25;21.80;1.00
108;DHT22;49;48.530;9.200;2023-05-07T15:41:53;21.70;1.00
108;DHT22;49;48.530;9.200;2023-05-07T15:44:23;21.90;1.00
108;DHT22;49;48.530;9.200;2023-05-07T15:46:54;22.00;1.00
108;DHT22;49;48.530;9.200;2023-05-07T15:49:35;22.00;1.00
108;DHT22;49;48.530;9.200;2023-05-07T15:52:07;22.00;1.00
108;DHT22;49;48.530;9.200;2023-05-07T15:54:35;22.20;1.00
108;DHT22;49;48.530;9.200;2023-05-07T15:57:03;22.40;1.00
108;DHT22;49;48.530;9.200;2023-05-07T15:59:33;22.40;1.00
108;DHT22;49;48.530;9.200;2023-05-07T16:02:05;22.60;1.00
108;DHT22;49;48.530;9.200;2023-05-07T16:04:35;22.90;1.00
108;DHT22;49;48.530;9.200;2023-05-07T16:07:05;22.60;1.00
108;DHT22;49;48.530;9.200;2023-05-07T16:09:35;22.90;1.00
108;DHT22;49;48.530;9.200;2023-05-07T16:12:03;22.80;1.00
108;DHT22;49;48.530;9.200;2023-05-07T16:14:33;22.90;1.00
108;DHT22;49;48.530;9.200;2023-05-07T16:17:00;22.70;1.00
108;DHT22;49;48.530;9.200;2023-05-07T16:19:28;22.60;1.00
108;DHT22;49;48.530;9.200;2023-05-07T16:21:55;22.80;1.00
108;DHT22;49;48.530;9.200;2023-05-07T16:24:22;22.80;1.00
108;DHT22;49;48.530;9.200;2023-05-07T16:26:49;22.60;1.00
108;DHT22;49;48.530;9.200;2023-05-07T16:29:19;22.40;1.00
108;DHT22;49;48.530;9.200;2023-05-07T16:31:49;22.20;1.00
108;DHT22;49;48.530;9.200;2023-05-07T16:34:16;22.10;1.00
108;DHT22;49;48.530;9.200;2023-05-07T16:36:43;22.10;1.00
108;DHT22;49;48.530;9.200;2023-05-07T16:39:10;22.00;1.00
108;DHT22;49;48.530;9.200;2023-05-07T16:41:39;21.90;1.00
108;DHT22;49;48.530;9.200;2023-05-07T16:44:06;22.10;1.00
108;DHT22;49;48.530;9.200;2023-05-07T16:46:34;21.80;1.00
108;DHT22;49;48.530;9.200;2023-05-07T16:49:04;21.90;1.00
108;DHT22;49;48.530;9.200;2023-05-07T16:51:32;21.90;1.00
108;DHT22;49;48.530;9.200;2023-05-07T16:54:00;22.00;1.00
108;DHT22;49;48.530;9.200;2023-05-07T16:56:27;21.90;1.00
108;DHT22;49;48.530;9.200;2023-05-07T16:58:54;22.00;1.00
108;DHT22;49;48.530;9.200;2023-05-07T17:01:21;22.20;1.00
108;DHT22;49;48.530;9.200;2023-05-07T17:03:50;22.00;1.00
108;DHT22;49;48.530;9.200;2023-05-07T17:06:19;22.00;1.00
108;DHT22;49;48.530;9.200;2023-05-07T17:08:49;22.10;1.00
108;DHT22;49;48.530;9.200;2023-05-07T17:11:16;21.80;1.00
108;DHT22;49;48.530;9.200;2023-05-07T17:13:43;21.80;1.00
108;DHT22;49;48.530;9.200;2023-05-07T17:16:10;22.10;1.00
108;DHT22;49;48.530;9.200;2023-05-07T17:18:37;22.20;1.00
108;DHT22;49;48.530;9.200;2023-05-07T17:21:04;22.30;1.00
108;DHT22;49;48.530;9.200;2023-05-07T17:23:33;22.40;1.00
108;DHT22;49;48.530;9.200;2023-05-07T17:26:00;22.40;1.00
108;DHT22;49;48.530;9.200;2023-05-07T17:28:28;22.40;1.00